createdAt,value
2024-03-16T00:00:40.747Z,996.35
2024-03-16T00:01:40.746Z,996.35
2024-03-16T00:02:40.716Z,996.38
2024-03-16T00:03:40.773Z,996.42
2024-03-16T00:04:40.751Z,996.40
2024-03-16T00:05:40.757Z,996.38
2024-03-16T00:06:40.787Z,996.36
2024-03-16T00:07:40.814Z,996.38
2024-03-16T00:08:40.813Z,996.37
2024-03-16T00:09:40.862Z,996.37
2024-03-16T00:10:40.888Z,996.35
2024-03-16T00:11:40.904Z,996.33
2024-03-16T00:12:40.912Z,996.40
2024-03-16T00:13:40.947Z,996.40
2024-03-16T00:14:40.924Z,996.35
2024-03-16T00:15:40.991Z,996.38
2024-03-16T00:16:40.977Z,996.35
2024-03-16T00:17:41.046Z,996.38
2024-03-16T00:18:41.034Z,996.38
2024-03-16T00:19:41.009Z,996.40
2024-03-16T00:20:41.074Z,996.39
2024-03-16T00:21:41.071Z,996.39
2024-03-16T00:22:41.092Z,996.40
2024-03-16T00:23:41.069Z,996.42
2024-03-16T00:24:41.170Z,996.39
2024-03-16T00:25:41.145Z,996.37
2024-03-16T00:26:41.132Z,996.40
2024-03-16T00:27:41.150Z,996.39
2024-03-16T00:28:41.193Z,996.41
2024-03-16T00:29:41.186Z,996.39
2024-03-16T00:30:41.249Z,996.38
2024-03-16T00:31:41.222Z,996.38
2024-03-16T00:32:41.261Z,996.41
2024-03-16T00:33:41.328Z,996.39
2024-03-16T00:34:41.289Z,996.41
2024-03-16T00:35:41.322Z,996.33
2024-03-16T00:36:41.328Z,996.43
2024-03-16T00:37:41.323Z,996.40
2024-03-16T00:38:41.407Z,996.40
2024-03-16T00:39:41.409Z,996.41
2024-03-16T00:40:41.377Z,996.44
2024-03-16T00:41:41.401Z,996.41
2024-03-16T00:42:41.439Z,996.43
2024-03-16T00:43:41.503Z,996.39
2024-03-16T00:44:43.204Z,996.32
2024-03-16T00:45:41.459Z,996.40
2024-03-16T00:46:41.483Z,996.32
2024-03-16T00:47:41.554Z,996.36
2024-03-16T00:48:41.604Z,996.39
2024-03-16T00:49:41.628Z,996.36
2024-03-16T00:50:41.560Z,996.35
2024-03-16T00:51:41.619Z,996.36
2024-03-16T00:52:41.614Z,996.38
2024-03-16T00:53:41.609Z,996.39
2024-03-16T00:54:41.697Z,996.37
2024-03-16T00:55:41.716Z,996.32
2024-03-16T00:56:41.671Z,996.36
2024-03-16T00:57:41.721Z,996.38
2024-03-16T00:58:41.686Z,996.36
2024-03-16T00:59:41.774Z,996.33
2024-03-16T01:00:41.751Z,996.34
2024-03-16T01:01:41.771Z,996.30
2024-03-16T01:02:41.756Z,996.36
2024-03-16T01:03:41.811Z,996.31
2024-03-16T01:04:41.839Z,996.32
2024-03-16T01:05:41.966Z,996.35
2024-03-16T01:06:41.847Z,996.37
2024-03-16T01:07:41.885Z,996.40
2024-03-16T01:08:41.859Z,996.38
2024-03-16T01:09:41.920Z,996.37
2024-03-16T01:10:41.959Z,996.41
2024-03-16T01:11:42.025Z,996.39
2024-03-16T01:12:41.948Z,996.38
2024-03-16T01:13:41.973Z,996.39
2024-03-16T01:14:41.995Z,996.37
2024-03-16T01:15:42.770Z,996.39
2024-03-16T01:16:42.027Z,996.34
2024-03-16T01:17:42.110Z,996.36
2024-03-16T01:18:42.074Z,996.35
2024-03-16T01:19:42.066Z,996.37
2024-03-16T01:20:42.412Z,996.35
2024-03-16T01:21:42.195Z,996.34
2024-03-16T01:22:42.212Z,996.30
2024-03-16T01:23:42.126Z,996.29
2024-03-16T01:24:42.228Z,996.29
2024-03-16T01:25:42.176Z,996.33
2024-03-16T01:26:42.186Z,996.36
2024-03-16T01:27:42.197Z,996.32
2024-03-16T01:28:42.216Z,996.34
2024-03-16T01:29:42.279Z,996.34
2024-03-16T01:30:42.282Z,996.37
2024-03-16T01:31:42.282Z,996.34
2024-03-16T01:32:42.345Z,996.37
2024-03-16T01:33:42.353Z,996.32
2024-03-16T01:34:42.341Z,996.35
2024-03-16T01:35:42.368Z,996.31
2024-03-16T01:36:42.419Z,996.33
2024-03-16T01:37:42.377Z,996.32
2024-03-16T01:38:42.382Z,996.33
2024-03-16T01:39:42.453Z,996.30
2024-03-16T01:40:42.425Z,996.30
2024-03-16T01:41:42.472Z,996.31
2024-03-16T01:42:42.528Z,996.33
2024-03-16T01:43:42.477Z,996.30
2024-03-16T01:44:42.500Z,996.29
2024-03-16T01:45:42.544Z,996.32
2024-03-16T01:46:42.633Z,996.35
2024-03-16T01:47:42.599Z,996.32
2024-03-16T01:48:42.582Z,996.30
2024-03-16T01:49:42.582Z,996.32
2024-03-16T01:50:42.596Z,996.31
2024-03-16T01:51:42.694Z,996.30
2024-03-16T01:52:42.642Z,996.32
2024-03-16T01:53:42.657Z,996.29
2024-03-16T01:54:42.682Z,996.36
2024-03-16T01:55:42.691Z,996.36
2024-03-16T01:56:42.730Z,996.28
2024-03-16T01:57:42.843Z,996.29
2024-03-16T01:58:42.748Z,996.28
2024-03-16T01:59:42.760Z,996.27
2024-03-16T02:00:42.808Z,996.23
2024-03-16T02:01:42.950Z,996.28
2024-03-16T02:02:42.840Z,996.22
2024-03-16T02:03:42.901Z,996.24
2024-03-16T02:04:42.847Z,996.23
2024-03-16T02:05:42.931Z,996.26
2024-03-16T02:06:42.913Z,996.24
2024-03-16T02:07:42.915Z,996.26
2024-03-16T02:08:42.946Z,996.25
2024-03-16T02:09:42.954Z,996.27
2024-03-16T02:10:43.045Z,996.31
2024-03-16T02:11:42.979Z,996.29
2024-03-16T02:12:42.988Z,996.33
2024-03-16T02:13:43.031Z,996.33
2024-03-16T02:14:43.020Z,996.33
2024-03-16T02:15:43.076Z,996.32
2024-03-16T02:16:43.056Z,996.31
2024-03-16T02:17:43.144Z,996.31
2024-03-16T02:18:43.128Z,996.30
2024-03-16T02:19:43.111Z,996.31
2024-03-16T02:20:43.124Z,996.27
2024-03-16T02:21:43.196Z,996.28
2024-03-16T02:22:43.193Z,996.30
2024-03-16T02:23:43.222Z,996.29
2024-03-16T02:24:43.207Z,996.31
2024-03-16T02:25:43.246Z,996.29
2024-03-16T02:26:43.233Z,996.30
2024-03-16T02:27:43.268Z,996.31
2024-03-16T02:28:43.304Z,996.28
2024-03-16T02:29:43.289Z,996.34
2024-03-16T02:30:43.348Z,996.29
2024-03-16T02:31:43.324Z,996.29
2024-03-16T02:32:43.392Z,996.36
2024-03-16T02:33:43.392Z,996.31
2024-03-16T02:34:43.371Z,996.34
2024-03-16T02:35:43.411Z,996.37
2024-03-16T02:36:43.450Z,996.34
2024-03-16T02:37:43.468Z,996.37
2024-03-16T02:38:43.502Z,996.36
2024-03-16T02:39:43.477Z,996.34
2024-03-16T02:40:43.508Z,996.38
2024-03-16T02:41:43.500Z,996.32
2024-03-16T02:42:43.564Z,996.34
2024-03-16T02:43:43.569Z,996.31
2024-03-16T02:44:43.554Z,996.33
2024-03-16T02:45:43.625Z,996.30
2024-03-16T02:46:43.588Z,996.29
2024-03-16T02:47:43.668Z,996.30
2024-03-16T02:48:43.626Z,996.29
2024-03-16T02:49:43.670Z,996.32
2024-03-16T02:50:43.710Z,996.28
2024-03-16T02:51:43.688Z,996.30
2024-03-16T02:52:43.691Z,996.27
2024-03-16T02:53:43.709Z,996.27
2024-03-16T02:54:43.820Z,996.25
2024-03-16T02:55:43.773Z,996.32
2024-03-16T02:56:43.758Z,996.32
2024-03-16T02:57:43.810Z,996.29
2024-03-16T02:58:43.801Z,996.28
2024-03-16T02:59:43.837Z,996.26
2024-03-16T03:00:43.903Z,996.32
2024-03-16T03:01:43.943Z,996.26
2024-03-16T03:02:43.860Z,996.26
2024-03-16T03:03:43.893Z,996.29
2024-03-16T03:04:43.899Z,996.27
2024-03-16T03:05:43.918Z,996.33
2024-03-16T03:06:43.990Z,996.30
2024-03-16T03:07:43.956Z,996.36
2024-03-16T03:08:43.982Z,996.33
2024-03-16T03:09:44.008Z,996.38
2024-03-16T03:10:44.067Z,996.34
2024-03-16T03:11:44.197Z,996.39
2024-03-16T03:12:44.094Z,996.35
2024-03-16T03:13:45.079Z,996.34
2024-03-16T03:14:44.082Z,996.36
2024-03-16T03:15:44.122Z,996.36
2024-03-16T03:16:44.114Z,996.41
2024-03-16T03:17:44.203Z,996.38
2024-03-16T03:18:44.161Z,996.39
2024-03-16T03:19:44.189Z,996.46
2024-03-16T03:20:44.186Z,996.44
2024-03-16T03:21:44.237Z,996.50
2024-03-16T03:22:44.261Z,996.45
2024-03-16T03:23:44.250Z,996.42
2024-03-16T03:24:44.265Z,996.45
2024-03-16T03:25:44.285Z,996.44
2024-03-16T03:26:44.284Z,996.44
2024-03-16T03:27:44.371Z,996.48
2024-03-16T03:28:44.356Z,996.47
2024-03-16T03:29:44.348Z,996.51
2024-03-16T03:30:44.367Z,996.47
2024-03-16T03:31:44.395Z,996.49
2024-03-16T03:32:44.448Z,996.48
2024-03-16T03:33:44.489Z,996.52
2024-03-16T03:34:44.436Z,996.51
2024-03-16T03:35:44.444Z,996.50
2024-03-16T03:36:44.522Z,996.48
2024-03-16T03:37:44.548Z,996.52
2024-03-16T03:38:44.546Z,996.46
2024-03-16T03:39:44.637Z,996.48
2024-03-16T03:40:44.543Z,996.46
2024-03-16T03:41:44.556Z,996.48
2024-03-16T03:42:44.575Z,996.52
2024-03-16T03:43:44.608Z,996.50
2024-03-16T03:44:44.649Z,996.48
2024-03-16T03:45:44.672Z,996.53
2024-03-16T03:46:44.653Z,996.54
2024-03-16T03:47:44.671Z,996.53
2024-03-16T03:48:44.730Z,996.48
2024-03-16T03:49:44.697Z,996.53
2024-03-16T03:50:44.736Z,996.54
2024-03-16T03:51:44.785Z,996.53
2024-03-16T03:52:44.759Z,996.51
2024-03-16T03:53:44.773Z,996.53
2024-03-16T03:54:44.889Z,996.53
2024-03-16T03:55:44.802Z,996.54
2024-03-16T03:56:44.823Z,996.56
2024-03-16T03:57:44.836Z,996.53
2024-03-16T03:58:44.852Z,996.55
2024-03-16T03:59:44.890Z,996.54
2024-03-16T04:00:44.955Z,996.54
2024-03-16T04:01:44.943Z,996.54
2024-03-16T04:02:44.945Z,996.59
2024-03-16T04:03:45.102Z,996.61
2024-03-16T04:04:44.985Z,996.60
2024-03-16T04:05:45.001Z,996.56
2024-03-16T04:06:45.023Z,996.64
2024-03-16T04:07:45.043Z,996.64
2024-03-16T04:08:45.037Z,996.62
2024-03-16T04:09:45.059Z,996.63
2024-03-16T04:10:45.112Z,996.67
2024-03-16T04:11:45.089Z,996.67
2024-03-16T04:12:45.118Z,996.59
2024-03-16T04:13:45.122Z,996.63
2024-03-16T04:14:45.136Z,996.64
2024-03-16T04:15:45.242Z,996.62
2024-03-16T04:16:45.191Z,996.70
2024-03-16T04:17:45.191Z,996.66
2024-03-16T04:18:45.263Z,996.68
2024-03-16T04:19:45.232Z,996.69
2024-03-16T04:20:45.236Z,996.68
2024-03-16T04:21:45.355Z,996.73
2024-03-16T04:22:45.291Z,996.74
2024-03-16T04:23:45.296Z,996.71
2024-03-16T04:24:45.355Z,996.77
2024-03-16T04:25:45.370Z,996.75
2024-03-16T04:26:45.365Z,996.77
2024-03-16T04:27:45.423Z,996.81
2024-03-16T04:28:45.387Z,996.77
2024-03-16T04:29:45.397Z,996.78
2024-03-16T04:30:45.432Z,996.73
2024-03-16T04:31:45.459Z,996.82
2024-03-16T04:32:45.491Z,996.81
2024-03-16T04:33:45.558Z,996.80
2024-03-16T04:34:45.475Z,996.82
2024-03-16T04:35:46.282Z,996.81
2024-03-16T04:36:45.551Z,996.83
2024-03-16T04:37:45.573Z,996.83
2024-03-16T04:38:45.542Z,996.81
2024-03-16T04:39:45.579Z,996.82
2024-03-16T04:40:45.585Z,996.87
2024-03-16T04:41:45.593Z,996.87
2024-03-16T04:42:45.689Z,996.87
2024-03-16T04:43:45.675Z,996.85
2024-03-16T04:44:45.647Z,996.90
2024-03-16T04:45:45.722Z,996.87
2024-03-16T04:46:45.688Z,996.90
2024-03-16T04:47:45.763Z,996.90
2024-03-16T04:48:45.766Z,996.85
2024-03-16T04:49:45.780Z,996.91
2024-03-16T04:50:48.681Z,996.90
2024-03-16T04:51:45.810Z,996.91
2024-03-16T04:52:45.807Z,996.93
2024-03-16T04:53:45.795Z,996.90
2024-03-16T04:54:45.873Z,996.91
2024-03-16T04:55:45.896Z,996.94
2024-03-16T04:56:45.879Z,996.90
2024-03-16T04:57:45.895Z,996.91
2024-03-16T04:58:45.890Z,996.87
2024-03-16T04:59:45.925Z,996.86
2024-03-16T05:00:46.027Z,996.89
2024-03-16T05:01:46.016Z,996.89
2024-03-16T05:02:45.957Z,996.88
2024-03-16T05:03:46.007Z,996.90
2024-03-16T05:04:46.012Z,996.91
2024-03-16T05:05:46.026Z,996.94
2024-03-16T05:06:46.050Z,996.92
2024-03-16T05:07:46.035Z,996.87
2024-03-16T05:08:46.049Z,996.91
2024-03-16T05:09:46.091Z,996.92
2024-03-16T05:10:46.156Z,996.89
2024-03-16T05:11:46.105Z,996.93
2024-03-16T05:12:46.152Z,996.95
2024-03-16T05:13:46.141Z,996.93
2024-03-16T05:14:46.167Z,996.93
2024-03-16T05:15:46.234Z,997.00
2024-03-16T05:16:46.218Z,996.98
2024-03-16T05:17:46.286Z,996.98
2024-03-16T05:18:46.328Z,997.04
2024-03-16T05:19:46.247Z,997.01
2024-03-16T05:20:46.256Z,997.07
2024-03-16T05:21:46.321Z,996.99
2024-03-16T05:22:46.323Z,997.01
2024-03-16T05:23:46.304Z,997.00
2024-03-16T05:24:46.362Z,997.06
2024-03-16T05:25:46.344Z,997.01
2024-03-16T05:26:46.359Z,997.04
2024-03-16T05:27:46.461Z,997.04
2024-03-16T05:28:46.395Z,997.08
2024-03-16T05:29:46.420Z,997.06
2024-03-16T05:30:46.453Z,997.07
2024-03-16T05:31:46.472Z,997.04
2024-03-16T05:32:46.520Z,997.10
2024-03-16T05:33:46.530Z,997.11
2024-03-16T05:34:46.519Z,997.12
2024-03-16T05:35:46.514Z,997.15
2024-03-16T05:36:46.537Z,997.13
2024-03-16T05:37:46.549Z,997.19
2024-03-16T05:38:46.562Z,997.16
2024-03-16T05:39:46.625Z,997.22
2024-03-16T05:40:46.600Z,997.25
2024-03-16T05:41:46.611Z,997.26
2024-03-16T05:42:46.667Z,997.29
2024-03-16T05:43:46.751Z,997.29
2024-03-16T05:44:46.675Z,997.28
2024-03-16T05:45:46.703Z,997.29
2024-03-16T05:46:46.695Z,997.33
2024-03-16T05:47:46.747Z,997.32
2024-03-16T05:48:46.839Z,997.31
2024-03-16T05:49:46.766Z,997.31
2024-03-16T05:50:46.767Z,997.34
2024-03-16T05:51:46.861Z,997.35
2024-03-16T05:52:46.813Z,997.36
2024-03-16T05:53:46.877Z,997.45
2024-03-16T05:54:46.869Z,997.46
2024-03-16T05:55:46.856Z,997.47
2024-03-16T05:56:46.865Z,997.50
2024-03-16T05:57:46.928Z,997.49
2024-03-16T05:58:46.903Z,997.48
2024-03-16T05:59:46.944Z,997.53
2024-03-16T06:00:46.962Z,997.54
2024-03-16T06:01:47.000Z,997.52
2024-03-16T06:02:46.982Z,997.57
2024-03-16T06:03:47.038Z,997.53
2024-03-16T06:04:47.040Z,997.56
2024-03-16T06:05:47.085Z,997.55
2024-03-16T06:06:47.092Z,997.58
2024-03-16T06:07:47.064Z,997.60
2024-03-16T06:08:47.067Z,997.64
2024-03-16T06:09:47.211Z,997.71
2024-03-16T06:10:47.179Z,997.83
2024-03-16T06:11:47.129Z,997.90
2024-03-16T06:12:47.184Z,997.90
2024-03-16T06:13:47.162Z,997.91
2024-03-16T06:14:47.177Z,997.95
2024-03-16T06:15:47.282Z,997.95
2024-03-16T06:16:47.205Z,997.95
2024-03-16T06:17:47.252Z,997.99
2024-03-16T06:18:47.328Z,998.16
2024-03-16T06:19:47.275Z,998.21
2024-03-16T06:20:47.305Z,998.28
2024-03-16T06:21:47.376Z,998.36
2024-03-16T06:22:47.305Z,998.39
2024-03-16T06:23:47.345Z,998.38
2024-03-16T06:24:47.349Z,998.39
2024-03-16T06:25:47.383Z,998.42
2024-03-16T06:26:47.414Z,998.45
2024-03-16T06:27:47.424Z,998.52
2024-03-16T06:28:47.409Z,998.48
2024-03-16T06:29:47.419Z,998.58
2024-03-16T06:30:47.475Z,998.63
2024-03-16T06:31:47.476Z,998.56
2024-03-16T06:32:47.495Z,998.65
2024-03-16T06:33:47.571Z,998.70
2024-03-16T06:34:47.514Z,998.72
2024-03-16T06:35:47.524Z,998.72
2024-03-16T06:36:47.613Z,998.81
2024-03-16T06:37:47.553Z,998.87
2024-03-16T06:38:47.591Z,998.79
2024-03-16T06:39:47.655Z,998.92
2024-03-16T06:40:47.592Z,998.88
2024-03-16T06:41:47.618Z,998.96
2024-03-16T06:42:47.674Z,998.98
2024-03-16T06:43:47.642Z,998.98
2024-03-16T06:44:47.714Z,999.00
2024-03-16T06:45:47.703Z,999.02
2024-03-16T06:46:47.690Z,999.06
2024-03-16T06:47:47.751Z,999.07
2024-03-16T06:48:47.743Z,999.09
2024-03-16T06:49:47.772Z,999.03
2024-03-16T06:50:47.781Z,999.11
2024-03-16T06:51:47.879Z,999.14
2024-03-16T06:52:47.794Z,999.16
2024-03-16T06:53:47.824Z,999.20
2024-03-16T06:54:47.886Z,999.24
2024-03-16T06:55:47.898Z,999.29
2024-03-16T06:56:47.865Z,999.33
2024-03-16T06:57:47.923Z,999.33
2024-03-16T06:58:47.878Z,999.37
2024-03-16T06:59:47.895Z,999.37
2024-03-16T07:00:47.983Z,999.40
2024-03-16T07:01:47.991Z,999.33
2024-03-16T07:02:47.979Z,999.48
2024-03-16T07:03:47.977Z,999.50
2024-03-16T07:04:48.004Z,999.50
2024-03-16T07:05:48.031Z,999.55
2024-03-16T07:06:48.039Z,999.55
2024-03-16T07:07:48.049Z,999.59
2024-03-16T07:08:48.055Z,999.63
2024-03-16T07:09:48.075Z,999.65
2024-03-16T07:10:48.069Z,999.62
2024-03-16T07:11:48.789Z,999.64
2024-03-16T07:12:48.156Z,999.73
2024-03-16T07:13:48.252Z,999.69
2024-03-16T07:14:48.148Z,999.69
2024-03-16T07:15:48.236Z,999.74
2024-03-16T07:16:48.167Z,999.74
2024-03-16T07:17:48.294Z,999.78
2024-03-16T07:18:48.228Z,999.80
2024-03-16T07:19:48.242Z,999.81
2024-03-16T07:20:48.245Z,999.82
2024-03-16T07:21:48.268Z,999.79
2024-03-16T07:22:48.293Z,999.93
2024-03-16T07:23:48.314Z,999.90
2024-03-16T07:24:48.334Z,999.94
2024-03-16T07:25:48.333Z,999.87
2024-03-16T07:26:48.332Z,999.92
2024-03-16T07:27:48.401Z,999.99
2024-03-16T07:28:48.354Z,1000.00
2024-03-16T07:29:48.403Z,1000.04
2024-03-16T07:30:48.489Z,1000.18
2024-03-16T07:31:48.407Z,1000.21
2024-03-16T07:32:48.442Z,1000.24
2024-03-16T07:33:48.589Z,1000.17
2024-03-16T07:34:48.456Z,1000.25
2024-03-16T07:35:48.479Z,1000.27
2024-03-16T07:36:48.531Z,1000.24
2024-03-16T07:37:48.507Z,1000.27
2024-03-16T07:38:48.546Z,1000.29
2024-03-16T07:39:48.564Z,1000.37
2024-03-16T07:40:48.556Z,1000.40
2024-03-16T07:41:50.031Z,1000.37
2024-03-16T07:42:48.596Z,1000.42
2024-03-16T07:43:48.640Z,1000.53
2024-03-16T07:44:48.623Z,1000.44
2024-03-16T07:45:48.708Z,1000.52
2024-03-16T07:46:48.646Z,1000.49
2024-03-16T07:47:48.782Z,1000.64
2024-03-16T07:48:48.725Z,1000.57
2024-03-16T07:49:48.711Z,1000.74
2024-03-16T07:50:48.720Z,1000.75
2024-03-16T07:51:48.774Z,1000.85
2024-03-16T07:52:48.785Z,1000.93
2024-03-16T07:53:48.777Z,1000.88
2024-03-16T07:54:48.837Z,1000.90
2024-03-16T07:55:48.813Z,1000.92
2024-03-16T07:56:50.808Z,1000.97
2024-03-16T07:57:48.895Z,1000.97
2024-03-16T07:58:48.872Z,1001.03
2024-03-16T07:59:48.867Z,1000.97
2024-03-16T08:00:48.907Z,1001.03
2024-03-16T08:01:49.002Z,1001.01
2024-03-16T08:02:48.957Z,1001.01
2024-03-16T08:03:48.983Z,1001.00
2024-03-16T08:04:48.941Z,1001.07
2024-03-16T08:05:48.962Z,1001.03
2024-03-16T08:06:49.003Z,1001.05
2024-03-16T08:07:49.029Z,1001.15
2024-03-16T08:08:49.023Z,1001.12
2024-03-16T08:09:49.050Z,1001.06
2024-03-16T08:10:49.033Z,1001.24
2024-03-16T08:11:49.087Z,1001.31
2024-03-16T08:12:49.164Z,1001.14
2024-03-16T08:13:49.123Z,1001.29
2024-03-16T08:14:49.092Z,1001.34
2024-03-16T08:15:49.151Z,1001.32
2024-03-16T08:16:49.131Z,1001.46
2024-03-16T08:17:49.214Z,1001.35
2024-03-16T08:18:49.287Z,1001.43
2024-03-16T08:19:49.184Z,1001.42
2024-03-16T08:20:49.190Z,1001.56
2024-03-16T08:21:49.282Z,1001.44
2024-03-16T08:22:49.247Z,1001.52
2024-03-16T08:23:49.283Z,1001.63
2024-03-16T08:24:49.286Z,1001.65
2024-03-16T08:25:49.273Z,1001.73
2024-03-16T08:26:49.285Z,1001.66
2024-03-16T08:27:49.394Z,1001.70
2024-03-16T08:28:49.390Z,1001.70
2024-03-16T08:29:49.353Z,1001.72
2024-03-16T08:30:49.389Z,1001.83
2024-03-16T08:31:49.371Z,1001.80
2024-03-16T08:32:49.480Z,1001.81
2024-03-16T08:33:49.449Z,1001.82
2024-03-16T08:34:49.430Z,1001.80
2024-03-16T08:35:49.434Z,1001.82
2024-03-16T08:36:49.487Z,1001.92
2024-03-16T08:37:49.470Z,1002.01
2024-03-16T08:38:49.545Z,1002.18
2024-03-16T08:39:49.573Z,1002.08
2024-03-16T08:40:49.559Z,1002.17
2024-03-16T08:41:49.618Z,1002.20
2024-03-16T08:42:49.580Z,1002.30
2024-03-16T08:43:49.606Z,1002.20
2024-03-16T08:44:49.580Z,1002.29
2024-03-16T08:45:52.423Z,1002.29
2024-03-16T08:46:49.612Z,1002.34
2024-03-16T08:47:49.665Z,1002.34
2024-03-16T08:48:49.745Z,1002.37
2024-03-16T08:49:49.720Z,1002.40
2024-03-16T08:50:49.681Z,1002.38
2024-03-16T08:51:49.808Z,1002.42
2024-03-16T08:52:49.706Z,1002.46
2024-03-16T08:53:49.723Z,1002.49
2024-03-16T08:54:49.880Z,1002.42
2024-03-16T08:55:49.763Z,1002.51
2024-03-16T08:56:49.791Z,1002.48
2024-03-16T08:57:49.859Z,1002.48
2024-03-16T08:58:49.807Z,1002.49
2024-03-16T08:59:49.833Z,1002.57
2024-03-16T09:00:50.132Z,1002.52
2024-03-16T09:01:50.032Z,1002.53
2024-03-16T09:02:49.872Z,1002.56
2024-03-16T09:03:49.925Z,1002.60
2024-03-16T09:04:52.505Z,1002.62
2024-03-16T09:05:49.918Z,1002.61
2024-03-16T09:06:49.986Z,1002.63
2024-03-16T09:07:49.968Z,1002.69
2024-03-16T09:08:49.956Z,1002.64
2024-03-16T09:09:50.007Z,1002.74
2024-03-16T09:10:49.990Z,1002.75
2024-03-16T09:11:50.077Z,1002.72
2024-03-16T09:12:50.121Z,1002.72
2024-03-16T09:13:50.055Z,1002.80
2024-03-16T09:14:50.066Z,1002.80
2024-03-16T09:15:50.102Z,1002.76
2024-03-16T09:16:50.369Z,1002.78
2024-03-16T09:17:50.407Z,1002.84
2024-03-16T09:18:50.189Z,1002.80
2024-03-16T09:19:50.179Z,1002.83
2024-03-16T09:20:50.186Z,1002.84
2024-03-16T09:21:50.217Z,1002.90
2024-03-16T09:22:50.272Z,1002.84
2024-03-16T09:23:50.261Z,1002.97
2024-03-16T09:24:50.305Z,1002.93
2024-03-16T09:25:50.269Z,1002.99
2024-03-16T09:26:50.260Z,1002.98
2024-03-16T09:27:50.347Z,1003.05
2024-03-16T09:28:50.291Z,1003.16
2024-03-16T09:29:50.306Z,1003.18
2024-03-16T09:30:52.314Z,1003.20
2024-03-16T09:31:50.341Z,1003.18
2024-03-16T09:32:50.401Z,1003.22
2024-03-16T09:33:50.397Z,1003.29
2024-03-16T09:34:50.395Z,1003.18
2024-03-16T09:35:50.420Z,1003.17
2024-03-16T09:36:50.457Z,1003.31
2024-03-16T09:37:50.470Z,1003.34
2024-03-16T09:38:50.480Z,1003.33
2024-03-16T09:39:50.504Z,1003.36
2024-03-16T09:40:50.488Z,1003.36
2024-03-16T09:41:50.608Z,1003.37
2024-03-16T09:42:50.602Z,1003.39
2024-03-16T09:43:50.718Z,1003.39
2024-03-16T09:44:50.558Z,1003.46
2024-03-16T09:45:50.616Z,1003.41
2024-03-16T09:46:50.594Z,1003.44
2024-03-16T09:47:50.715Z,1003.48
2024-03-16T09:48:50.681Z,1003.53
2024-03-16T09:49:50.668Z,1003.53
2024-03-16T09:50:50.680Z,1003.53
2024-03-16T09:51:50.695Z,1003.58
2024-03-16T09:52:50.686Z,1003.61
2024-03-16T09:53:50.721Z,1003.55
2024-03-16T09:54:50.763Z,1003.57
2024-03-16T09:55:50.744Z,1003.63
2024-03-16T09:56:50.756Z,1003.62
2024-03-16T09:57:50.838Z,1003.61
2024-03-16T09:58:50.787Z,1003.70
2024-03-16T09:59:50.842Z,1003.75
2024-03-16T10:00:50.892Z,1003.81
2024-03-16T10:01:50.848Z,1003.77
2024-03-16T10:02:50.855Z,1003.80
2024-03-16T10:03:50.893Z,1003.76
2024-03-16T10:04:50.962Z,1003.85
2024-03-16T10:05:50.902Z,1003.89
2024-03-16T10:06:50.969Z,1003.85
2024-03-16T10:07:51.020Z,1003.84
2024-03-16T10:08:50.958Z,1003.88
2024-03-16T10:09:51.061Z,1003.91
2024-03-16T10:10:50.976Z,1003.87
2024-03-16T10:11:51.019Z,1003.94
2024-03-16T10:12:51.109Z,1003.97
2024-03-16T10:13:51.049Z,1003.97
2024-03-16T10:14:51.045Z,1003.97
2024-03-16T10:15:51.142Z,1004.00
2024-03-16T10:16:51.144Z,1004.00
2024-03-16T10:17:51.091Z,1004.06
2024-03-16T10:18:51.149Z,1004.07
2024-03-16T10:19:51.129Z,1004.05
2024-03-16T10:20:51.144Z,1004.13
2024-03-16T10:21:51.555Z,1004.13
2024-03-16T10:22:51.189Z,1004.16
2024-03-16T10:23:51.223Z,1004.16
2024-03-16T10:24:51.294Z,1004.20
2024-03-16T10:25:51.230Z,1004.22
2024-03-16T10:26:51.268Z,1004.24
2024-03-16T10:27:51.302Z,1004.27
2024-03-16T10:28:51.280Z,1004.30
2024-03-16T10:29:51.314Z,1004.26
2024-03-16T10:30:51.375Z,1004.23
2024-03-16T10:31:55.119Z,1004.25
2024-03-16T10:32:51.391Z,1004.35
2024-03-16T10:33:51.400Z,1004.36
2024-03-16T10:34:51.370Z,1004.43
2024-03-16T10:35:51.418Z,1004.38
2024-03-16T10:36:51.445Z,1004.37
2024-03-16T10:37:51.904Z,1004.47
2024-03-16T10:38:51.466Z,1004.48
2024-03-16T10:39:51.457Z,1004.48
2024-03-16T10:40:51.477Z,1004.49
2024-03-16T10:41:51.489Z,1004.47
2024-03-16T10:42:51.566Z,1004.41
2024-03-16T10:43:51.542Z,1004.46
2024-03-16T10:44:53.953Z,1004.46
2024-03-16T10:45:51.563Z,1004.52
2024-03-16T10:46:51.580Z,1004.58
2024-03-16T10:47:51.597Z,1004.59
2024-03-16T10:48:51.607Z,1004.57
2024-03-16T10:49:51.616Z,1004.64
2024-03-16T10:50:54.677Z,1004.64
2024-03-16T10:51:51.677Z,1004.55
2024-03-16T10:52:51.702Z,1004.68
2024-03-16T10:53:51.689Z,1004.67
2024-03-16T10:54:51.723Z,1004.66
2024-03-16T10:55:51.720Z,1004.71
2024-03-16T10:56:53.877Z,1004.68
2024-03-16T10:57:51.752Z,1004.82
2024-03-16T10:58:51.770Z,1004.78
2024-03-16T10:59:51.811Z,1004.75
2024-03-16T11:00:51.840Z,1004.81
2024-03-16T11:01:51.815Z,1004.82
2024-03-16T11:02:53.488Z,1004.83
2024-03-16T11:03:51.854Z,1004.80
2024-03-16T11:04:51.868Z,1004.84
2024-03-16T11:05:51.885Z,1004.85
2024-03-16T11:06:51.901Z,1004.85
2024-03-16T11:07:51.925Z,1004.80
2024-03-16T11:08:51.932Z,1004.87
2024-03-16T11:09:51.951Z,1004.88
2024-03-16T11:10:51.987Z,1004.89
2024-03-16T11:11:51.982Z,1004.91
2024-03-16T11:12:52.067Z,1004.95
2024-03-16T11:13:52.421Z,1004.99
2024-03-16T11:14:52.034Z,1005.02
2024-03-16T11:15:52.100Z,1005.06
2024-03-16T11:16:52.087Z,1005.07
2024-03-16T11:17:52.083Z,1005.10
2024-03-16T11:18:52.099Z,1005.13
2024-03-16T11:19:52.138Z,1005.18
2024-03-16T11:20:52.207Z,1005.15
2024-03-16T11:21:52.478Z,1005.04
2024-03-16T11:22:52.176Z,1005.15
2024-03-16T11:23:52.194Z,1005.19
2024-03-16T11:24:52.250Z,1005.18
2024-03-16T11:25:52.264Z,1005.18
2024-03-16T11:26:52.268Z,1005.21
2024-03-16T11:27:52.263Z,1005.23
2024-03-16T11:28:52.266Z,1005.36
2024-03-16T11:29:52.379Z,1005.38
2024-03-16T11:30:52.310Z,1005.37
2024-03-16T11:31:52.342Z,1005.34
2024-03-16T11:32:52.340Z,1005.36
2024-03-16T11:33:52.347Z,1005.40
2024-03-16T11:34:52.401Z,1005.46
2024-03-16T11:35:52.383Z,1005.46
2024-03-16T11:36:52.405Z,1005.46
2024-03-16T11:37:52.412Z,1005.44
2024-03-16T11:38:52.439Z,1005.47
2024-03-16T11:39:52.494Z,1005.49
2024-03-16T11:40:52.468Z,1005.52
2024-03-16T11:41:52.486Z,1005.48
2024-03-16T11:42:52.502Z,1005.55
2024-03-16T11:43:52.519Z,1005.46
2024-03-16T11:44:52.578Z,1005.48
2024-03-16T11:45:52.555Z,1005.52
2024-03-16T11:46:52.571Z,1005.52
2024-03-16T11:47:52.588Z,1005.54
2024-03-16T11:48:52.603Z,1005.55
2024-03-16T11:49:52.676Z,1005.64
2024-03-16T11:50:52.635Z,1005.61
2024-03-16T11:51:52.686Z,1005.66
2024-03-16T11:52:52.670Z,1005.62
2024-03-16T11:53:52.723Z,1005.68
2024-03-16T11:54:52.736Z,1005.68
2024-03-16T11:55:52.813Z,1005.66
2024-03-16T11:56:52.843Z,1005.67
2024-03-16T11:57:52.776Z,1005.64
2024-03-16T11:58:52.780Z,1005.67
2024-03-16T11:59:52.824Z,1005.71
2024-03-16T12:00:52.836Z,1005.70
2024-03-16T12:01:52.849Z,1005.69
2024-03-16T12:02:52.840Z,1005.71
2024-03-16T12:03:52.910Z,1005.75
2024-03-16T12:04:53.014Z,1005.73
2024-03-16T12:05:52.918Z,1005.67
2024-03-16T12:06:52.906Z,1005.72
2024-03-16T12:07:52.924Z,1005.67
2024-03-16T12:08:52.987Z,1005.67
2024-03-16T12:09:52.957Z,1005.61
2024-03-16T12:10:53.000Z,1005.71
2024-03-16T12:11:52.996Z,1005.80
2024-03-16T12:12:53.011Z,1005.72
2024-03-16T12:13:53.049Z,1005.76
2024-03-16T12:14:53.042Z,1005.76
2024-03-16T12:15:53.056Z,1005.71
2024-03-16T12:16:53.116Z,1005.70
2024-03-16T12:17:53.098Z,1005.69
2024-03-16T12:18:53.118Z,1005.72
2024-03-16T12:19:53.146Z,1005.67